Decoded Metar for KGPH ( in ) (IATA:) | Meteo·Mobile Aviation Weather
aviador You're here:

KGPH Decoded Metar

in
Report Time2019-09-21 09:35:00
UTC Time2019-09-21 09:15:02
Flight Rules mvfr MVFR
WindCalm
Visibility9999 m
Phenomena:N/A
Clouds:Overcast 018 Hf
Expected CloudBase > 1,200 ft AGL from Temp-Dew spread
Ceiling1,800 ft
Temp23°C
Dew Point20°C (83% RH)
QNH1015 hPa
Raw Report
KGPH 210935Z AUTO 00000KT 10SM OVC018 23/20 A2998 RMK AO2=

Extra information for KGPH:More info

Social comments